Terminal Aerodrome Forecast
Issued by NWS North Platte, NE

Home | Current Version | Previous Version | Graphics & Text | Print | Product List | Glossary On
Versions: 1 2 3 4 5 6 7 8 9 10 11 12 13 14 15
000
FTUS43 KLBF 010300 AAB
TAFVTN
TAF AMD
KVTN 010343Z 0104/0124 33006KT P6SM OVC080
      TEMPO 0104/0106 P6SM -TSRA SCT040 OVC080CB
     FM011500 02007KT P6SM SCT080=

USA.gov is the U.S. government's official web portal to all federal, state and local government web resources and services.